Time;durP1;ratioP1;P1;durP2;ratioP2;P2;SDS_P1;SDS_P2;PMS_P1;PMS_P2;Temp;Humidity;BMP_temperature;BMP_pressure;BME280_temperature;BME280_humidity;BME280_pressure;Samples;Min_cycle;Max_cycle;Signal;HPM_P1;HPM_P2
2023/12/25 00:00:49;;;;;;;5.15;2.30;;;;;;;9.79;85.98;97481.28;5041982;28;20030;-72
2023/12/25 00:03:14;;;;;;;6.05;2.53;;;;;;;9.90;85.65;97501.78;5037941;28;20068;-72
2023/12/25 00:05:39;;;;;;;5.05;2.13;;;;;;;9.85;85.95;97498.28;5032330;28;20105;-72
2023/12/25 00:08:05;;;;;;;4.68;2.30;;;;;;;9.89;85.71;97494.00;5038848;28;20037;-72
2023/12/25 00:10:30;;;;;;;4.30;2.10;;;;;;;9.81;85.46;97486.38;5027683;28;20108;-72
2023/12/25 00:12:56;;;;;;;5.97;2.25;;;;;;;9.81;85.67;97484.50;5039725;28;20500;-72
2023/12/25 00:15:21;;;;;;;3.55;2.13;;;;;;;9.75;85.88;97478.28;5037831;28;20611;-72
2023/12/25 00:17:46;;;;;;;6.50;2.13;;;;;;;9.90;85.72;97496.41;5050490;28;20068;-72
2023/12/25 00:20:12;;;;;;;6.03;2.17;;;;;;;9.83;85.18;97486.94;5036122;28;20436;-72
2023/12/25 00:22:37;;;;;;;2.83;2.05;;;;;;;9.93;85.31;97505.84;5043049;28;20039;-72
2023/12/25 00:25:03;;;;;;;3.88;2.00;;;;;;;9.97;85.02;97504.25;5019741;28;20018;-72
2023/12/25 00:27:28;;;;;;;3.88;1.90;;;;;;;9.86;85.07;97483.75;5034609;28;20069;-72
2023/12/25 00:29:54;;;;;;;3.67;2.28;;;;;;;9.91;85.06;97502.63;5033361;28;20072;-72
2023/12/25 00:32:20;;;;;;;3.28;2.08;;;;;;;9.87;85.20;97512.28;5020390;28;20048;-72
2023/12/25 00:34:45;;;;;;;3.38;1.80;;;;;;;9.97;84.41;97506.94;5028150;28;20032;-72
2023/12/25 00:37:11;;;;;;;5.63;2.20;;;;;;;9.89;84.54;97526.25;5052331;28;20568;-72
2023/12/25 00:39:36;;;;;;;4.57;1.80;;;;;;;9.93;84.60;97511.22;5021691;28;20029;-72
2023/12/25 00:42:01;;;;;;;3.85;2.35;;;;;;;9.87;84.20;97502.28;5023773;28;20117;-72
2023/12/25 00:44:27;;;;;;;5.10;2.00;;;;;;;9.95;84.44;97509.09;5028087;28;20113;-71
2023/12/25 00:46:53;;;;;;;4.18;1.92;;;;;;;9.80;84.83;97490.16;5013184;28;20041;-71
2023/12/25 00:49:19;;;;;;;3.55;1.90;;;;;;;9.93;83.90;97511.22;5016167;28;20512;-72
2023/12/25 00:51:44;;;;;;;4.50;1.90;;;;;;;9.83;84.65;97506.56;5033751;28;20060;-72
2023/12/25 00:54:10;;;;;;;5.22;2.13;;;;;;;9.89;84.17;97510.13;5024021;28;20021;-71
2023/12/25 00:56:35;;;;;;;7.13;2.17;;;;;;;9.91;84.15;97524.94;5042182;28;20060;-71
2023/12/25 00:59:00;;;;;;;6.22;2.05;;;;;;;9.87;84.21;97506.88;5045440;28;20021;-71
2023/12/25 01:01:26;;;;;;;6.38;1.92;;;;;;;9.87;84.09;97521.13;5008222;28;20542;-72
2023/12/25 01:03:51;;;;;;;3.83;1.83;;;;;;;9.91;83.86;97524.13;5038273;28;20032;-72
2023/12/25 01:06:17;;;;;;;2.42;1.92;;;;;;;9.94;83.60;97526.31;5013409;28;20040;-71
2023/12/25 01:08:42;;;;;;;5.20;2.08;;;;;;;9.92;83.76;97528.47;5039205;28;20429;-72
2023/12/25 01:11:07;;;;;;;2.70;1.95;;;;;;;9.94;83.52;97518.25;5031672;28;20037;-74
2023/12/25 01:13:33;;;;;;;4.32;2.15;;;;;;;9.94;83.52;97531.69;5021028;28;20040;-71
2023/12/25 01:15:58;;;;;;;4.43;2.40;;;;;;;9.88;83.63;97540.78;5022092;28;20121;-73
2023/12/25 01:18:24;;;;;;;2.83;2.15;;;;;;;9.84;83.82;97534.28;5024169;28;20026;-71
2023/12/25 01:20:49;;;;;;;6.13;2.08;;;;;;;9.87;83.85;97528.41;4998664;28;20048;-71
2023/12/25 01:23:14;;;;;;;4.53;2.17;;;;;;;9.79;83.70;97526.16;5016727;28;20108;-72
2023/12/25 01:25:40;;;;;;;3.53;1.88;;;;;;;9.84;83.60;97523.53;5025262;28;20037;-72
2023/12/25 01:28:05;;;;;;;3.53;2.03;;;;;;;9.84;83.63;97528.91;5019113;28;20656;-72
2023/12/25 01:30:32;;;;;;;3.38;1.80;;;;;;;9.68;83.89;97503.78;5006604;28;20025;-72
2023/12/25 01:32:57;;;;;;;2.80;1.92;;;;;;;9.77;83.79;97523.75;5008242;28;20685;-72
2023/12/25 01:35:22;;;;;;;3.85;1.80;;;;;;;9.68;84.18;97515.31;5031104;28;20044;-72
2023/12/25 01:37:48;;;;;;;3.17;1.95;;;;;;;9.90;83.79;97528.69;5021943;28;20470;-72
2023/12/25 01:40:14;;;;;;;3.97;1.95;;;;;;;9.89;84.02;97531.66;5023799;28;20084;-71
2023/12/25 01:42:43;;;;;;;4.00;1.90;;;;;;;9.86;83.66;97524.91;5017620;28;20021;-71
2023/12/25 01:45:10;;;;;;;4.78;1.98;;;;;;;9.82;84.06;97520.28;5045116;28;20033;-72
2023/12/25 01:47:35;;;;;;;3.60;1.90;;;;;;;9.87;83.45;97517.66;5002341;28;20022;-72
2023/12/25 01:50:03;;;;;;;2.20;2.00;;;;;;;9.77;83.07;97520.25;5004961;28;20049;-72
2023/12/25 01:52:28;;;;;;;4.05;2.15;;;;;;;9.88;83.48;97530.00;5010591;28;20018;-72
2023/12/25 01:54:58;;;;;;;2.13;1.80;;;;;;;9.87;83.75;97528.41;5039389;28;20043;-72
2023/12/25 01:57:25;;;;;;;2.95;1.73;;;;;;;9.75;84.08;97526.66;4999235;28;20515;-72
2023/12/25 01:59:50;;;;;;;4.07;1.88;;;;;;;9.80;83.84;97528.63;5021996;28;20516;-72
2023/12/25 02:02:18;;;;;;;4.78;2.20;;;;;;;9.86;83.96;97550.97;5010003;28;20100;-71
2023/12/25 02:04:45;;;;;;;5.30;1.98;;;;;;;9.83;84.22;97540.72;5015701;28;20112;-71
2023/12/25 02:07:11;;;;;;;3.03;1.88;;;;;;;9.79;84.12;97526.16;5014771;28;20474;-71
2023/12/25 02:09:37;;;;;;;2.85;1.80;;;;;;;9.82;83.58;97547.19;5008281;28;20128;-73
2023/12/25 02:12:04;;;;;;;3.92;2.15;;;;;;;9.81;84.11;97535.59;5007674;28;20061;-72
2023/12/25 02:14:29;;;;;;;6.20;2.20;;;;;;;9.88;83.71;97562.28;5046837;28;20118;-72
2023/12/25 02:16:55;;;;;;;2.65;1.88;;;;;;;9.37;83.84;97465.06;5009680;28;20028;-72
2023/12/25 02:19:28;;;;;;;4.25;2.00;;;;;;;9.85;84.02;97541.31;5017698;28;20041;-72
2023/12/25 02:21:55;;;;;;;2.50;2.20;;;;;;;9.79;84.29;97523.47;5020004;28;20061;-72
2023/12/25 02:24:24;;;;;;;5.20;1.90;;;;;;;9.86;84.08;97521.38;5014794;28;20056;-72
2023/12/25 02:26:50;;;;;;;2.40;1.85;;;;;;;9.86;84.14;97537.53;5011242;28;20084;-72
2023/12/25 02:29:15;;;;;;;3.15;1.73;;;;;;;9.87;84.04;97550.72;5048114;28;20021;-72
2023/12/25 02:31:41;;;;;;;4.07;1.95;;;;;;;9.72;84.49;97521.81;5038593;28;20043;-71
2023/12/25 02:34:06;;;;;;;5.93;2.10;;;;;;;9.81;84.49;97524.03;5000901;28;20025;-72
2023/12/25 02:36:32;;;;;;;3.28;1.90;;;;;;;9.76;84.88;97530.19;5021295;28;20037;-73
2023/12/25 02:38:57;;;;;;;3.20;2.10;;;;;;;9.80;84.29;97534.00;5018833;28;20021;-71
2023/12/25 02:41:25;;;;;;;3.72;2.28;;;;;;;9.81;84.71;97534.78;5035593;28;20029;-72
2023/12/25 02:43:50;;;;;;;4.78;2.30;;;;;;;9.82;84.60;97547.19;5025986;28;20052;-70
2023/12/25 02:46:16;;;;;;;3.55;2.10;;;;;;;9.79;84.59;97531.53;5032851;28;20111;-70
2023/12/25 02:48:42;;;;;;;2.72;1.70;;;;;;;9.75;84.88;97521.28;5040264;28;20022;-71
2023/12/25 02:51:07;;;;;;;4.20;2.00;;;;;;;9.79;84.58;97512.72;5020782;28;20032;-73
2023/12/25 02:53:33;;;;;;;4.75;2.30;;;;;;;9.77;84.77;97506.78;5004496;28;20470;-70
2023/12/25 02:55:58;;;;;;;3.95;2.17;;;;;;;9.62;85.18;97502.09;5007875;28;20037;-70
2023/12/25 02:58:24;;;;;;;2.95;2.00;;;;;;;9.78;84.76;97530.72;5032298;28;20049;-72
2023/12/25 03:00:50;;;;;;;3.22;1.90;;;;;;;9.64;85.41;97530.34;5018967;28;20053;-72
2023/12/25 03:03:15;;;;;;;4.50;1.98;;;;;;;9.58;85.48;97530.56;5048637;28;20481;-71
2023/12/25 03:05:41;;;;;;;4.15;2.30;;;;;;;9.78;85.15;97532.63;4982999;28;20030;-71
2023/12/25 03:08:07;;;;;;;4.03;2.13;;;;;;;9.70;85.12;97529.34;5018060;28;20481;-71
2023/12/25 03:10:32;;;;;;;4.30;2.10;;;;;;;9.79;85.11;97531.53;5032354;28;20108;-72
2023/12/25 03:12:57;;;;;;;2.80;2.30;;;;;;;9.77;84.73;97539.06;5021527;28;20032;-71
2023/12/25 03:15:23;;;;;;;4.30;2.20;;;;;;;9.75;85.39;97525.88;5031631;28;20037;-70
2023/12/25 03:17:48;;;;;;;3.15;2.38;;;;;;;9.78;85.10;97529.94;5021051;28;20116;-72
2023/12/25 03:20:14;;;;;;;3.20;1.92;;;;;;;9.75;85.29;97526.66;5016841;28;20033;-71
2023/12/25 03:22:39;;;;;;;3.13;2.10;;;;;;;9.63;85.56;97520.66;5022513;28;20534;-71
2023/12/25 03:25:05;;;;;;;2.85;1.80;;;;;;;9.75;85.02;97553.56;5025402;28;20037;-71
2023/12/25 03:27:30;;;;;;;2.60;1.95;;;;;;;9.65;85.35;97550.78;5007318;28;20026;-72
2023/12/25 03:29:55;;;;;;;2.67;1.92;;;;;;;9.75;85.33;97558.94;5013930;28;20045;-72
2023/12/25 03:32:21;;;;;;;2.95;1.85;;;;;;;9.78;85.61;97562.22;5017864;28;20017;-72
2023/12/25 03:34:47;;;;;;;4.15;1.90;;;;;;;9.79;84.97;97574.56;5009278;28;20060;-72
2023/12/25 03:37:13;;;;;;;3.22;2.03;;;;;;;9.77;85.34;97571.31;4997679;28;20018;-72
2023/12/25 03:39:38;;;;;;;3.60;1.95;;;;;;;9.72;85.18;97570.22;5022197;28;20056;-70
2023/12/25 03:42:05;;;;;;;3.50;1.90;;;;;;;9.73;85.32;97593.34;5029492;28;20460;-73
2023/12/25 03:44:30;;;;;;;3.28;1.77;;;;;;;9.60;85.27;97561.50;5029791;28;20073;-73
2023/12/25 03:46:56;;;;;;;2.95;1.90;;;;;;;9.73;85.01;97561.06;5025075;28;20397;-73
2023/12/25 03:49:21;;;;;;;3.72;1.73;;;;;;;9.75;85.93;97568.91;5014944;28;20065;-73
2023/12/25 03:51:46;;;;;;;1.83;1.73;;;;;;;9.74;85.01;97568.09;5020970;28;20488;-72
2023/12/25 03:54:12;;;;;;;2.22;1.90;;;;;;;9.72;85.07;97580.16;5044107;28;20088;-72
2023/12/25 03:56:37;;;;;;;3.08;1.90;;;;;;;9.69;84.83;97584.16;5018552;28;20104;-73
2023/12/25 03:59:03;;;;;;;3.35;1.70;;;;;;;9.78;85.13;97586.41;5031559;28;20029;-73
2023/12/25 04:01:28;;;;;;;3.67;2.20;;;;;;;9.64;84.91;97567.97;5034479;28;20516;-72
2023/12/25 04:03:54;;;;;;;2.55;1.80;;;;;;;9.69;85.47;97564.53;5022255;28;20056;-73
2023/12/25 04:06:24;;;;;;;4.95;2.28;;;;;;;9.67;84.80;97572.84;5020428;28;20377;-73
2023/12/25 04:08:49;;;;;;;2.65;1.92;;;;;;;9.72;85.11;97572.91;5012718;28;20135;-73
2023/12/25 04:11:22;;;;;;;1.70;1.50;;;;;;;9.65;84.90;97580.38;5018747;28;20061;-73
2023/12/25 04:13:48;;;;;;;5.57;1.98;;;;;;;9.73;85.18;97582.59;5014103;28;20732;-72
2023/12/25 04:16:21;;;;;;;3.28;1.65;;;;;;;9.68;85.10;97562.91;5009869;28;20042;-72
2023/12/25 04:18:47;;;;;;;4.07;1.90;;;;;;;9.54;85.73;97545.56;4995889;28;20037;-72
2023/12/25 04:21:22;;;;;;;2.72;1.88;;;;;;;9.69;85.68;97575.28;5017692;28;20025;-72
2023/12/25 04:23:48;;;;;;;2.95;1.70;;;;;;;9.68;85.68;97569.09;5043894;28;20048;-73
2023/12/25 04:26:14;;;;;;;3.35;1.63;;;;;;;9.61;85.66;97557.72;5011240;28;20036;-72
2023/12/25 04:28:39;;;;;;;2.65;1.80;;;;;;;9.59;85.45;97554.47;5014401;28;20029;-72
2023/12/25 04:31:05;;;;;;;1.80;1.70;;;;;;;9.69;85.14;97559.97;5033141;28;20033;-73
2023/12/25 04:33:30;;;;;;;2.33;1.60;;;;;;;9.72;85.05;97559.47;5013931;28;20037;-72
2023/12/25 04:35:59;;;;;;;2.92;1.80;;;;;;;9.65;84.78;97564.25;5013122;28;20026;-72
2023/12/25 04:38:24;;;;;;;1.90;1.70;;;;;;;9.72;84.80;97567.53;5034034;28;20043;-72
2023/12/25 04:40:50;;;;;;;3.50;1.83;;;;;;;9.69;84.87;97559.97;5030888;28;20025;-73
2023/12/25 04:43:16;;;;;;;1.90;1.70;;;;;;;9.74;84.67;97557.34;5018070;28;20026;-72
2023/12/25 04:45:41;;;;;;;4.15;1.50;;;;;;;9.62;84.83;97548.59;4990747;28;20425;-72
2023/12/25 04:48:07;;;;;;;1.90;1.67;;;;;;;9.69;84.63;97549.22;5003594;28;20059;-73
2023/12/25 04:50:33;;;;;;;1.60;1.40;;;;;;;9.63;84.48;97546.72;5020974;28;20528;-72
2023/12/25 04:52:59;;;;;;;2.70;1.58;;;;;;;9.66;84.38;97555.09;5016411;28;20033;-73
2023/12/25 04:55:26;;;;;;;1.70;1.30;;;;;;;9.71;84.48;97557.84;5045955;28;20025;-72
2023/12/25 04:57:52;;;;;;;1.63;1.25;;;;;;;9.69;84.48;97559.97;5000405;28;20037;-72
2023/12/25 05:00:18;;;;;;;4.53;1.60;;;;;;;9.73;84.45;97555.69;5050684;28;20023;-72
2023/12/25 05:02:44;;;;;;;1.85;1.60;;;;;;;9.62;84.59;97564.75;5012781;28;20053;-72
2023/12/25 05:05:11;;;;;;;3.53;1.52;;;;;;;9.65;84.67;97548.09;5030608;28;20049;-71
2023/12/25 05:07:37;;;;;;;3.78;1.52;;;;;;;9.63;84.72;97547.56;5013178;28;20041;-72
2023/12/25 05:10:03;;;;;;;2.15;1.10;;;;;;;9.69;84.46;97559.97;5022181;28;20026;-72
2023/12/25 05:12:29;;;;;;;1.60;1.35;;;;;;;9.72;84.25;97559.47;5012754;28;20490;-72
2023/12/25 05:14:55;;;;;;;2.85;1.30;;;;;;;9.71;84.53;97557.00;5028723;28;20467;-72
2023/12/25 05:17:20;;;;;;;2.53;1.20;;;;;;;9.70;84.33;97566.97;5040165;28;20048;-72
2023/12/25 05:19:45;;;;;;;1.80;1.25;;;;;;;9.67;84.69;97561.28;5027971;28;20020;-72
2023/12/25 05:22:12;;;;;;;3.53;1.30;;;;;;;9.64;84.63;97567.97;5009861;28;20040;-72
2023/12/25 05:24:37;;;;;;;1.42;1.13;;;;;;;9.68;84.54;97579.06;5045495;28;20029;-72
2023/12/25 05:27:03;;;;;;;1.30;1.20;;;;;;;9.62;84.23;97559.34;5010971;28;20108;-72
2023/12/25 05:29:28;;;;;;;2.35;1.40;;;;;;;9.70;84.33;97572.34;5028373;28;20435;-71
2023/12/25 05:31:54;;;;;;;1.42;1.33;;;;;;;9.70;84.34;97584.97;5026158;28;20449;-71
2023/12/25 05:34:19;;;;;;;2.47;1.30;;;;;;;9.67;84.17;97572.84;5044691;28;20041;-72
2023/12/25 05:36:44;;;;;;;1.40;1.25;;;;;;;9.68;84.24;97593.28;5043245;28;20060;-71
2023/12/25 05:39:10;;;;;;;2.83;1.55;;;;;;;9.70;83.97;97593.88;5048664;28;20091;-72
2023/12/25 05:41:36;;;;;;;1.92;1.40;;;;;;;9.78;83.66;97581.81;5018936;28;20045;-72
2023/12/25 05:44:02;;;;;;;2.30;1.30;;;;;;;9.71;83.87;97595.47;5015282;28;20063;-72
2023/12/25 05:46:27;;;;;;;2.08;1.30;;;;;;;9.64;84.10;97584.09;5044110;28;20047;-72
2023/12/25 05:48:53;;;;;;;10.45;7.18;;;;;;;9.64;84.00;97578.72;5013914;28;20021;-73
2023/12/25 05:51:18;;;;;;;16.27;12.13;;;;;;;9.68;83.61;97585.22;5028098;28;20401;-72
2023/12/25 05:53:43;;;;;;;30.50;26.63;;;;;;;9.78;84.06;97599.84;5033325;28;20390;-71
2023/12/25 05:56:09;;;;;;;4.00;3.70;;;;;;;9.71;84.07;97598.16;5027147;28;20041;-72
2023/12/25 05:58:34;;;;;;;12.63;11.40;;;;;;;9.77;83.94;97603.59;5032385;28;20489;-71
2023/12/25 06:01:00;;;;;;;147.60;98.22;;;;;;;9.62;84.01;97591.63;5041049;28;20029;-71
2023/12/25 06:03:26;;;;;;;49.28;36.92;;;;;;;9.74;83.81;97600.34;5027768;28;20443;-72
2023/12/25 06:05:52;;;;;;;4.07;3.78;;;;;;;9.78;83.75;97605.22;5016781;28;20489;-72
2023/12/25 06:08:17;;;;;;;3.92;3.65;;;;;;;9.61;83.79;97584.59;5041565;28;20029;-71
2023/12/25 06:10:43;;;;;;;2.38;1.98;;;;;;;9.75;83.84;97607.34;5029928;28;20091;-71
2023/12/25 06:13:08;;;;;;;2.55;2.13;;;;;;;9.75;84.07;97604.66;5034768;28;20021;-72
2023/12/25 06:15:33;;;;;;;1.80;1.55;;;;;;;9.74;84.24;97597.66;5011937;28;20121;-72
2023/12/25 06:17:59;;;;;;;1.63;1.52;;;;;;;9.72;83.95;97607.88;5033360;28;20117;-71
2023/12/25 06:20:25;;;;;;;1.45;1.33;;;;;;;9.67;84.13;97602.44;5031680;28;20038;-72
2023/12/25 06:22:50;;;;;;;1.40;1.30;;;;;;;9.66;84.88;97608.84;5012143;28;20033;-71
2023/12/25 06:25:16;;;;;;;2.97;2.70;;;;;;;9.59;84.65;97597.50;5009051;28;20104;-71
2023/12/25 06:27:41;;;;;;;1.80;1.60;;;;;;;9.72;84.85;97607.88;5038678;28;20048;-71
2023/12/25 06:30:07;;;;;;;2.25;1.80;;;;;;;9.73;84.81;97601.41;5042914;28;20088;-71
2023/12/25 06:32:32;;;;;;;2.13;1.50;;;;;;;9.55;85.49;97591.00;5026628;28;20052;-72
2023/12/25 06:34:58;;;;;;;1.70;1.30;;;;;;;9.66;85.37;97613.44;5024525;28;20192;-72
2023/12/25 06:37:23;;;;;;;1.70;1.50;;;;;;;9.65;85.38;97595.69;5041106;28;20079;-72
2023/12/25 06:39:49;;;;;;;2.55;1.55;;;;;;;9.54;85.83;97605.53;5042315;28;20048;-72
2023/12/25 06:42:14;;;;;;;1.67;1.58;;;;;;;9.62;85.90;97617.69;5039461;28;20021;-72
2023/12/25 06:44:39;;;;;;;1.95;1.65;;;;;;;9.54;86.21;97616.28;5017110;28;20037;-71
2023/12/25 06:47:05;;;;;;;1.83;1.60;;;;;;;9.56;86.51;97619.53;5044210;28;20386;-72
2023/12/25 06:49:31;;;;;;;1.70;1.60;;;;;;;9.51;86.51;97610.56;5038104;28;20036;-72
2023/12/25 06:51:56;;;;;;;1.98;1.80;;;;;;;9.36;86.95;97611.22;5027750;28;20028;-70
2023/12/25 06:54:22;;;;;;;1.90;1.80;;;;;;;9.53;86.77;97620.00;5043427;28;20426;-71
2023/12/25 06:56:48;;;;;;;2.45;1.88;;;;;;;9.46;87.08;97619.41;5020118;28;20065;-71
2023/12/25 06:59:13;;;;;;;1.90;1.70;;;;;;;9.42;87.40;97612.91;5044734;28;20073;-71
2023/12/25 07:01:39;;;;;;;3.45;1.83;;;;;;;9.43;87.52;97624.44;5027631;28;20021;-73
2023/12/25 07:04:04;;;;;;;2.05;1.88;;;;;;;9.40;87.73;97616.91;5024798;28;20728;-71
2023/12/25 07:06:29;;;;;;;2.08;1.77;;;;;;;9.34;87.33;97626.78;5026804;28;20083;-71
2023/12/25 07:08:55;;;;;;;3.17;1.80;;;;;;;9.41;87.76;97634.63;5037471;28;20041;-72
2023/12/25 07:11:21;;;;;;;2.65;1.70;;;;;;;9.29;87.70;97623.22;5016885;28;20036;-71
2023/12/25 07:13:47;;;;;;;2.53;2.13;;;;;;;9.36;87.46;97623.84;5040251;28;20113;-71
2023/12/25 07:16:25;;;;;;;2.90;2.00;;;;;;;9.38;87.26;97640.53;5013708;28;20105;-71
2023/12/25 07:18:52;;;;;;;2.88;1.65;;;;;;;9.38;87.46;97635.94;5023345;28;20584;-70
2023/12/25 07:21:18;;;;;;;3.42;1.40;;;;;;;9.42;87.10;97639.78;5030477;28;20060;-70
2023/12/25 07:23:43;;;;;;;2.03;1.60;;;;;;;9.38;87.06;97632.47;5039839;28;20064;-71
2023/12/25 07:26:08;;;;;;;3.53;2.17;;;;;;;9.43;86.37;97641.38;5020653;28;20013;-70
2023/12/25 07:28:34;;;;;;;1.70;1.60;;;;;;;9.51;86.71;97657.09;5029044;28;20037;-71
2023/12/25 07:31:03;;;;;;;1.80;1.65;;;;;;;9.45;86.45;97655.38;5012907;28;20059;-70
2023/12/25 07:33:28;;;;;;;1.63;1.50;;;;;;;9.42;86.52;97666.66;5037289;28;20044;-70
2023/12/25 07:35:54;;;;;;;3.38;1.70;;;;;;;9.59;85.80;97671.97;5041252;28;20029;-72
2023/12/25 07:38:20;;;;;;;1.70;1.60;;;;;;;9.57;85.60;97690.19;5025402;28;20122;-71
2023/12/25 07:40:48;;;;;;;3.05;1.85;;;;;;;9.47;85.96;97664.03;5014527;28;20032;-70
2023/12/25 07:43:13;;;;;;;7.82;4.47;;;;;;;9.47;85.55;97658.66;5032928;28;20037;-71
2023/12/25 07:45:38;;;;;;;11.95;6.70;;;;;;;9.57;85.55;97669.50;5010218;28;20026;-71
2023/12/25 07:48:04;;;;;;;2.22;1.85;;;;;;;9.53;85.60;97684.53;5033439;28;20033;-72
2023/12/25 07:50:29;;;;;;;3.08;2.60;;;;;;;9.56;85.00;97680.53;5013527;28;20032;-70
2023/12/25 07:52:55;;;;;;;4.50;2.55;;;;;;;9.50;85.33;97679.63;5012226;28;20410;-71
2023/12/25 07:55:20;;;;;;;3.75;2.00;;;;;;;9.52;85.28;97677.50;5016177;28;20025;-72
2023/12/25 07:57:45;;;;;;;3.08;1.92;;;;;;;9.56;85.12;97684.03;5011685;28;20033;-71
2023/12/25 08:00:11;;;;;;;3.33;2.13;;;;;;;9.57;85.45;97701.78;5026853;28;20367;-71
2023/12/25 08:02:37;;;;;;;2.40;2.13;;;;;;;9.55;84.97;97671.66;5026794;28;20033;-71
2023/12/25 08:05:03;;;;;;;3.35;1.60;;;;;;;9.62;84.88;97690.28;4993174;28;20032;-71
2023/12/25 08:07:28;;;;;;;1.05;1.05;;;;;;;9.68;84.65;97698.13;5025957;28;20096;-72
2023/12/25 08:09:54;;;;;;;1.83;1.20;;;;;;;9.65;84.94;97687.09;5027096;28;20026;-72
2023/12/25 08:12:19;;;;;;;2.55;1.70;;;;;;;9.57;85.38;97672.19;5014757;28;20082;-72
2023/12/25 08:14:44;;;;;;;1.75;1.40;;;;;;;9.63;84.36;97708.84;5035849;28;20476;-72
2023/12/25 08:17:10;;;;;;;1.30;1.20;;;;;;;9.61;84.95;97708.25;5039973;28;20056;-72
2023/12/25 08:19:35;;;;;;;1.98;1.42;;;;;;;9.57;85.01;97690.19;5009865;28;20029;-72
2023/12/25 08:22:01;;;;;;;1.63;1.27;;;;;;;9.61;85.15;97686.75;5037896;28;20383;-71
2023/12/25 08:24:26;;;;;;;1.77;1.23;;;;;;;9.62;84.48;97693.78;5027820;28;20074;-72
2023/12/25 08:26:51;;;;;;;1.50;1.40;;;;;;;9.63;84.85;97700.78;5044568;28;20108;-72
2023/12/25 08:29:18;;;;;;;1.35;1.10;;;;;;;9.67;84.63;97701.09;5006754;28;20168;-72
2023/12/25 08:31:43;;;;;;;1.20;1.10;;;;;;;9.60;84.79;97706.66;5042332;28;20037;-72
2023/12/25 08:34:09;;;;;;;1.52;1.42;;;;;;;9.57;85.05;97707.16;5026010;28;20025;-74
2023/12/25 08:36:34;;;;;;;1.20;1.10;;;;;;;9.50;84.60;97706.53;5030499;28;20037;-75
2023/12/25 08:38:59;;;;;;;1.50;1.40;;;;;;;9.69;84.17;97723.16;5012041;28;20059;-72
2023/12/25 08:41:25;;;;;;;1.85;1.10;;;;;;;9.68;84.33;97708.09;5041068;28;20508;-72
2023/12/25 08:43:50;;;;;;;1.00;1.00;;;;;;;9.62;84.40;97715.28;5027531;28;20027;-72
2023/12/25 08:46:16;;;;;;;1.25;1.10;;;;;;;9.69;84.25;97721.28;5042254;28;20059;-72
2023/12/25 08:48:41;;;;;;;1.35;1.20;;;;;;;9.65;84.21;97712.09;5045747;28;20075;-71
2023/12/25 08:51:07;;;;;;;1.27;1.20;;;;;;;9.69;84.02;97713.22;5041131;28;20029;-73
2023/12/25 08:53:32;;;;;;;1.38;1.27;;;;;;;9.64;83.98;97718.53;5022938;28;20496;-72
2023/12/25 08:55:58;;;;;;;1.65;1.15;;;;;;;9.65;83.56;97739.00;5014455;28;20041;-71
2023/12/25 08:58:24;;;;;;;1.30;1.00;;;;;;;9.67;83.48;97723.41;5035630;28;20036;-71
2023/12/25 09:00:50;;;;;;;1.05;1.00;;;;;;;9.73;82.93;97732.38;5021466;28;20029;-71
2023/12/25 09:03:15;;;;;;;1.88;1.02;;;;;;;9.81;82.73;97731.09;5035618;28;20503;-71
2023/12/25 09:05:41;;;;;;;2.30;1.13;;;;;;;9.79;83.07;97719.78;5028037;28;20033;-72
2023/12/25 09:08:06;;;;;;;1.55;1.20;;;;;;;9.73;83.03;97717.03;5033882;28;20104;-71
2023/12/25 09:10:32;;;;;;;1.40;1.00;;;;;;;9.77;83.15;97721.91;5024611;28;20037;-71
2023/12/25 09:12:57;;;;;;;1.15;1.00;;;;;;;9.81;82.64;97728.41;5033417;28;20488;-71
2023/12/25 09:15:23;;;;;;;2.17;1.13;;;;;;;9.76;82.53;97729.16;5043082;28;20037;-71
2023/12/25 09:17:50;;;;;;;1.10;1.00;;;;;;;9.79;82.67;97742.13;5040020;28;20028;-72
2023/12/25 09:20:16;;;;;;;1.25;1.15;;;;;;;9.83;82.59;97755.84;5043642;28;21142;-72
2023/12/25 09:22:41;;;;;;;1.13;1.00;;;;;;;9.83;82.54;97753.16;5027082;28;20027;-72
2023/12/25 09:25:06;;;;;;;1.30;1.20;;;;;;;9.75;82.50;97747.16;5038510;28;20041;-71
2023/12/25 09:27:32;;;;;;;1.00;1.00;;;;;;;9.73;82.39;97754.66;5042611;28;20029;-72
2023/12/25 09:29:57;;;;;;;1.20;1.10;;;;;;;9.83;82.06;97761.22;5036109;28;20119;-72
2023/12/25 09:32:23;;;;;;;1.40;1.10;;;;;;;9.72;81.90;97755.75;5032467;28;20025;-71
2023/12/25 09:34:49;;;;;;;1.27;1.15;;;;;;;9.84;82.11;97744.06;5032053;28;20033;-72
2023/12/25 09:37:14;;;;;;;1.40;1.30;;;;;;;9.91;82.14;97755.44;5051112;28;20079;-72
2023/12/25 09:39:40;;;;;;;1.20;1.10;;;;;;;9.88;82.26;97767.50;5045638;28;20572;-72
2023/12/25 09:42:05;;;;;;;1.08;1.08;;;;;;;9.75;82.47;97736.41;5046926;28;20028;-72
2023/12/25 09:44:31;;;;;;;1.63;1.10;;;;;;;9.88;81.85;97750.53;5023780;28;20108;-72
2023/12/25 09:46:59;;;;;;;1.13;1.00;;;;;;;9.77;82.17;97746.13;5031727;28;20076;-72
2023/12/25 09:49:26;;;;;;;1.30;1.20;;;;;;;9.84;82.47;97754.81;5032502;28;20044;-72
2023/12/25 09:51:54;;;;;;;0.90;0.90;;;;;;;9.83;82.02;97747.78;5019669;28;20048;-72
2023/12/25 09:54:19;;;;;;;1.20;1.10;;;;;;;9.84;82.25;97746.75;5034263;28;20037;-72
2023/12/25 09:56:45;;;;;;;1.20;1.10;;;;;;;9.87;82.07;97748.94;5004329;28;20037;-72
2023/12/25 09:59:10;;;;;;;1.30;1.20;;;;;;;9.86;82.59;97741.91;5018849;28;20041;-72
2023/12/25 10:01:37;;;;;;;1.05;1.00;;;;;;;9.81;82.24;97760.69;5019376;28;20064;-72
2023/12/25 10:04:04;;;;;;;1.35;1.20;;;;;;;9.79;82.23;97747.50;5021207;28;20038;-72
2023/12/25 10:06:29;;;;;;;2.03;1.58;;;;;;;9.75;82.38;97736.41;5031503;28;20080;-72
2023/12/25 10:08:54;;;;;;;1.13;1.10;;;;;;;9.79;82.52;97735.91;5032653;28;20049;-72
2023/12/25 10:11:21;;;;;;;1.30;1.20;;;;;;;9.65;82.60;97730.94;5043289;28;20021;-72
2023/12/25 10:13:46;;;;;;;1.23;1.08;;;;;;;9.64;83.02;97731.16;5024893;28;20046;-72
2023/12/25 10:16:12;;;;;;;1.48;1.38;;;;;;;9.66;82.63;97740.59;5049274;28;20052;-72
2023/12/25 10:18:38;;;;;;;1.30;1.20;;;;;;;9.78;82.62;97745.06;5000670;28;20069;-72
2023/12/25 10:21:04;;;;;;;2.55;1.42;;;;;;;9.72;82.78;97730.72;4998591;28;20051;-72
2023/12/25 10:23:34;;;;;;;2.83;1.30;;;;;;;9.70;82.90;97727.47;5007822;28;20066;-72
2023/12/25 10:26:01;;;;;;;1.25;1.15;;;;;;;9.83;82.55;97731.66;5027511;28;20045;-72
2023/12/25 10:28:30;;;;;;;1.27;1.17;;;;;;;9.79;82.73;97730.53;5031531;28;20057;-71
2023/12/25 10:31:03;;;;;;;1.50;1.33;;;;;;;9.79;82.52;97725.97;5036242;28;20120;-72
2023/12/25 10:33:29;;;;;;;1.65;1.52;;;;;;;9.82;82.54;97724.66;5014180;28;20034;-72
2023/12/25 10:36:02;;;;;;;3.28;1.90;;;;;;;9.78;82.38;97734.31;5014415;28;20025;-72
2023/12/25 10:38:27;;;;;;;2.33;2.13;;;;;;;9.75;82.44;97744.47;5014614;28;20041;-72
2023/12/25 10:40:52;;;;;;;1.67;1.48;;;;;;;9.74;82.57;97729.41;5009427;28;20033;-72
2023/12/25 10:43:19;;;;;;;1.70;1.48;;;;;;;9.74;82.56;97723.22;5017703;28;20032;-72
2023/12/25 10:45:45;;;;;;;2.63;1.50;;;;;;;9.75;82.73;97746.38;5020293;28;20075;-72
2023/12/25 10:48:11;;;;;;;2.53;1.50;;;;;;;9.73;82.39;97722.41;5015048;28;20042;-72
2023/12/25 10:50:36;;;;;;;1.75;1.60;;;;;;;9.73;82.60;97743.91;5014240;28;20404;-72
2023/12/25 10:53:03;;;;;;;1.95;1.50;;;;;;;9.77;82.48;97727.28;5039754;28;20464;-72
2023/12/25 10:55:40;;;;;;;2.17;1.65;;;;;;;9.80;82.39;97726.78;5025639;28;20361;-72
2023/12/25 10:58:08;;;;;;;1.70;1.60;;;;;;;9.80;82.59;97722.25;5032329;28;20039;-71
2023/12/25 11:00:41;;;;;;;1.30;1.20;;;;;;;9.65;82.65;97717.47;5040020;28;20513;-71
2023/12/25 11:03:06;;;;;;;2.13;1.60;;;;;;;9.70;82.43;97725.63;5031878;28;20025;-72
2023/12/25 11:05:32;;;;;;;1.55;1.45;;;;;;;9.73;82.19;97722.41;5030506;28;20392;-72
2023/12/25 11:07:58;;;;;;;2.40;1.50;;;;;;;9.64;82.44;97723.09;5005464;28;20104;-72
2023/12/25 11:10:26;;;;;;;1.58;1.48;;;;;;;9.69;82.32;97720.47;4997831;28;20034;-72
2023/12/25 11:12:53;;;;;;;1.80;1.40;;;;;;;9.73;82.46;97717.03;5036275;28;20025;-72
2023/12/25 11:15:18;;;;;;;1.30;1.20;;;;;;;9.75;82.85;97751.75;5035057;28;20163;-72
2023/12/25 11:17:44;;;;;;;1.70;1.58;;;;;;;9.75;82.50;97744.47;5048514;28;20056;-72
2023/12/25 11:20:11;;;;;;;3.15;1.60;;;;;;;9.82;82.22;97746.19;4987523;28;20026;-72
2023/12/25 11:22:37;;;;;;;1.58;1.40;;;;;;;9.69;82.57;97737.41;5028051;28;20504;-72
2023/12/25 11:25:02;;;;;;;2.33;1.40;;;;;;;9.77;82.18;97748.81;5025491;28;20025;-72
2023/12/25 11:27:29;;;;;;;1.98;1.38;;;;;;;9.83;81.98;97728.97;5031399;28;20402;-72
2023/12/25 11:30:05;;;;;;;1.52;1.42;;;;;;;9.71;81.79;97713.78;5035073;28;20045;-72
2023/12/25 11:32:30;;;;;;;1.38;1.27;;;;;;;9.74;82.31;97731.28;5006205;28;20046;-72
2023/12/25 11:34:57;;;;;;;1.30;1.20;;;;;;;9.78;82.36;97726.25;5024409;28;20026;-72